sensor_id;sensor_type;location;lat;lon;timestamp;temperature;humidity
47921;DHT22;33686;48.770;9.186;2022-12-20T06:17:08;5.10;99.90
47921;DHT22;33686;48.770;9.186;2022-12-20T06:19:36;5.00;99.90
47921;DHT22;33686;48.770;9.186;2022-12-20T06:22:02;5.00;99.90
47921;DHT22;33686;48.770;9.186;2022-12-20T06:24:43;5.00;99.90
47921;DHT22;33686;48.770;9.186;2022-12-20T06:27:09;4.90;99.90
47921;DHT22;33686;48.770;9.186;2022-12-20T06:29:36;4.90;99.90
47921;DHT22;33686;48.770;9.186;2022-12-20T06:32:07;4.90;99.90
47921;DHT22;33686;48.770;9.186;2022-12-20T06:34:33;5.00;99.90
47921;DHT22;33686;48.770;9.186;2022-12-20T06:36:59;5.10;99.90
47921;DHT22;33686;48.770;9.186;2022-12-20T06:39:28;5.10;99.90
47921;DHT22;33686;48.770;9.186;2022-12-20T06:42:02;5.10;99.90
47921;DHT22;33686;48.770;9.186;2022-12-20T06:44:27;5.10;99.90
47921;DHT22;33686;48.770;9.186;2022-12-20T06:46:53;5.10;99.90
47921;DHT22;33686;48.770;9.186;2022-12-20T06:49:19;5.20;99.90
47921;DHT22;33686;48.770;9.186;2022-12-20T06:51:45;5.20;99.90
47921;DHT22;33686;48.770;9.186;2022-12-20T06:54:11;5.30;99.90
47921;DHT22;33686;48.770;9.186;2022-12-20T06:56:37;5.40;99.90
47921;DHT22;33686;48.770;9.186;2022-12-20T06:59:06;5.50;99.90
47921;DHT22;33686;48.770;9.186;2022-12-20T07:01:32;5.50;99.90
47921;DHT22;33686;48.770;9.186;2022-12-20T07:03:57;5.60;99.90
47921;DHT22;33686;48.770;9.186;2022-12-20T07:06:23;5.60;99.90
47921;DHT22;33686;48.770;9.186;2022-12-20T07:08:48;5.80;99.90
47921;DHT22;33686;48.770;9.186;2022-12-20T07:11:14;5.70;99.90
47921;DHT22;33686;48.770;9.186;2022-12-20T07:13:40;5.60;99.90
47921;DHT22;33686;48.770;9.186;2022-12-20T07:16:05;5.40;99.90
47921;DHT22;33686;48.770;9.186;2022-12-20T07:18:31;5.40;99.90
47921;DHT22;33686;48.770;9.186;2022-12-20T07:21:00;5.50;99.90
47921;DHT22;33686;48.770;9.186;2022-12-20T07:23:26;5.60;99.90
47921;DHT22;33686;48.770;9.186;2022-12-20T07:25:52;5.60;99.90
47921;DHT22;33686;48.770;9.186;2022-12-20T07:28:18;5.50;99.90
47921;DHT22;33686;48.770;9.186;2022-12-20T07:30:43;5.50;99.90
47921;DHT22;33686;48.770;9.186;2022-12-20T07:33:09;5.40;99.90
47921;DHT22;33686;48.770;9.186;2022-12-20T07:35:34;5.40;99.90
47921;DHT22;33686;48.770;9.186;2022-12-20T07:38:00;5.50;99.90
47921;DHT22;33686;48.770;9.186;2022-12-20T07:40:25;5.60;99.90
47921;DHT22;33686;48.770;9.186;2022-12-20T07:42:51;5.60;99.90
47921;DHT22;33686;48.770;9.186;2022-12-20T07:45:17;5.50;99.90
47921;DHT22;33686;48.770;9.186;2022-12-20T07:47:43;5.60;99.90
47921;DHT22;33686;48.770;9.186;2022-12-20T07:50:08;5.60;99.90
47921;DHT22;33686;48.770;9.186;2022-12-20T07:52:34;5.60;99.90
47921;DHT22;33686;48.770;9.186;2022-12-20T07:55:01;5.60;99.90
47921;DHT22;33686;48.770;9.186;2022-12-20T07:57:38;5.60;99.90
47921;DHT22;33686;48.770;9.186;2022-12-20T08:00:06;5.70;99.90
47921;DHT22;33686;48.770;9.186;2022-12-20T08:02:51;5.70;99.90
47921;DHT22;33686;48.770;9.186;2022-12-20T08:05:18;5.90;99.90
47921;DHT22;33686;48.770;9.186;2022-12-20T08:07:43;6.00;99.90
47921;DHT22;33686;48.770;9.186;2022-12-20T08:10:11;6.10;99.90
47921;DHT22;33686;48.770;9.186;2022-12-20T08:12:38;6.10;99.90
47921;DHT22;33686;48.770;9.186;2022-12-20T08:15:04;6.30;99.90
47921;DHT22;33686;48.770;9.186;2022-12-20T08:17:30;6.40;99.90
47921;DHT22;33686;48.770;9.186;2022-12-20T08:19:56;6.50;99.90
47921;DHT22;33686;48.770;9.186;2022-12-20T08:22:22;6.60;99.90
47921;DHT22;33686;48.770;9.186;2022-12-20T08:24:47;6.70;99.90
47921;DHT22;33686;48.770;9.186;2022-12-20T08:27:13;6.70;99.90
47921;DHT22;33686;48.770;9.186;2022-12-20T08:29:39;6.70;99.90
47921;DHT22;33686;48.770;9.186;2022-12-20T08:32:05;6.70;99.90
47921;DHT22;33686;48.770;9.186;2022-12-20T08:34:30;6.80;99.90
47921;DHT22;33686;48.770;9.186;2022-12-20T08:36:56;6.80;99.90
47921;DHT22;33686;48.770;9.186;2022-12-20T08:39:21;7.00;99.90
47921;DHT22;33686;48.770;9.186;2022-12-20T08:41:47;7.00;99.90
47921;DHT22;33686;48.770;9.186;2022-12-20T08:44:13;7.00;99.90
47921;DHT22;33686;48.770;9.186;2022-12-20T08:46:38;7.10;99.90
47921;DHT22;33686;48.770;9.186;2022-12-20T08:49:04;7.10;99.90
47921;DHT22;33686;48.770;9.186;2022-12-20T08:51:30;7.10;99.90
47921;DHT22;33686;48.770;9.186;2022-12-20T08:53:55;7.10;99.90
47921;DHT22;33686;48.770;9.186;2022-12-20T08:56:21;7.10;99.90
47921;DHT22;33686;48.770;9.186;2022-12-20T08:58:46;7.20;99.90
47921;DHT22;33686;48.770;9.186;2022-12-20T09:01:13;7.30;99.90
47921;DHT22;33686;48.770;9.186;2022-12-20T09:03:39;7.50;99.90
47921;DHT22;33686;48.770;9.186;2022-12-20T09:06:06;7.60;99.90
47921;DHT22;33686;48.770;9.186;2022-12-20T09:08:36;7.60;99.90
47921;DHT22;33686;48.770;9.186;2022-12-20T09:11:05;7.60;99.90
47921;DHT22;33686;48.770;9.186;2022-12-20T09:13:31;7.70;99.90
47921;DHT22;33686;48.770;9.186;2022-12-20T09:15:59;7.60;99.90
47921;DHT22;33686;48.770;9.186;2022-12-20T09:18:24;7.60;99.90
47921;DHT22;33686;48.770;9.186;2022-12-20T09:20:50;7.60;99.90
47921;DHT22;33686;48.770;9.186;2022-12-20T09:23:15;7.60;99.90
47921;DHT22;33686;48.770;9.186;2022-12-20T09:25:41;7.70;99.90
47921;DHT22;33686;48.770;9.186;2022-12-20T09:28:06;7.80;99.90
47921;DHT22;33686;48.770;9.186;2022-12-20T09:30:32;7.90;99.90
47921;DHT22;33686;48.770;9.186;2022-12-20T09:32:58;7.80;99.90
47921;DHT22;33686;48.770;9.186;2022-12-20T09:35:23;7.90;99.90
47921;DHT22;33686;48.770;9.186;2022-12-20T09:37:49;7.80;99.90
47921;DHT22;33686;48.770;9.186;2022-12-20T09:40:18;7.80;99.90
47921;DHT22;33686;48.770;9.186;2022-12-20T09:42:45;7.70;99.90
47921;DHT22;33686;48.770;9.186;2022-12-20T09:45:13;7.70;99.90
47921;DHT22;33686;48.770;9.186;2022-12-20T09:47:41;7.70;99.90
47921;DHT22;33686;48.770;9.186;2022-12-20T09:50:12;7.80;99.90
47921;DHT22;33686;48.770;9.186;2022-12-20T09:52:59;7.80;99.90
47921;DHT22;33686;48.770;9.186;2022-12-20T09:55:31;7.80;99.90
47921;DHT22;33686;48.770;9.186;2022-12-20T10:00:28;8.00;99.90
47921;DHT22;33686;48.770;9.186;2022-12-20T10:02:54;8.00;99.90
47921;DHT22;33686;48.770;9.186;2022-12-20T10:05:22;8.10;99.90
47921;DHT22;33686;48.770;9.186;2022-12-20T10:15:27;8.40;99.90
47921;DHT22;33686;48.770;9.186;2022-12-20T10:22:59;8.60;99.90
47921;DHT22;33686;48.770;9.186;2022-12-20T10:25:28;8.50;99.90
47921;DHT22;33686;48.770;9.186;2022-12-20T10:27:55;8.50;99.90
47921;DHT22;33686;48.770;9.186;2022-12-20T10:30:22;8.50;99.90
47921;DHT22;33686;48.770;9.186;2022-12-20T10:32:49;8.50;99.90
47921;DHT22;33686;48.770;9.186;2022-12-20T10:37:55;8.60;99.90
47921;DHT22;33686;48.770;9.186;2022-12-20T10:40:25;8.50;99.90
47921;DHT22;33686;48.770;9.186;2022-12-20T10:42:51;8.50;99.90
47921;DHT22;33686;48.770;9.186;2022-12-20T10:47:42;8.60;99.90
47921;DHT22;33686;48.770;9.186;2022-12-20T10:50:13;8.50;99.90
47921;DHT22;33686;48.770;9.186;2022-12-20T10:52:40;8.50;99.90
47921;DHT22;33686;48.770;9.186;2022-12-20T10:57:50;8.40;99.90
47921;DHT22;33686;48.770;9.186;2022-12-20T11:00:26;8.30;99.90
47921;DHT22;33686;48.770;9.186;2022-12-20T11:05:40;8.30;99.90
47921;DHT22;33686;48.770;9.186;2022-12-20T11:08:16;8.20;99.90
47921;DHT22;33686;48.770;9.186;2022-12-20T11:10:43;8.30;99.90
47921;DHT22;33686;48.770;9.186;2022-12-20T11:13:22;8.30;99.90
47921;DHT22;33686;48.770;9.186;2022-12-20T11:15:49;8.40;99.90
47921;DHT22;33686;48.770;9.186;2022-12-20T11:20:51;8.50;99.90
47921;DHT22;33686;48.770;9.186;2022-12-20T11:23:26;8.50;99.90
47921;DHT22;33686;48.770;9.186;2022-12-20T11:39:10;8.80;99.90
47921;DHT22;33686;48.770;9.186;2022-12-20T11:41:43;8.80;99.90
47921;DHT22;33686;48.770;9.186;2022-12-20T11:44:24;8.80;99.90
47921;DHT22;33686;48.770;9.186;2022-12-20T11:52:28;8.90;99.90
47921;DHT22;33686;48.770;9.186;2022-12-20T11:55:01;8.90;99.90
47921;DHT22;33686;48.770;9.186;2022-12-20T11:57:31;8.90;99.90
47921;DHT22;33686;48.770;9.186;2022-12-20T11:59:59;9.00;99.90
47921;DHT22;33686;48.770;9.186;2022-12-20T12:05:26;9.10;99.90
47921;DHT22;33686;48.770;9.186;2022-12-20T12:07:55;9.10;99.90
47921;DHT22;33686;48.770;9.186;2022-12-20T12:10:22;9.10;99.90
47921;DHT22;33686;48.770;9.186;2022-12-20T12:20:22;9.20;99.90
47921;DHT22;33686;48.770;9.186;2022-12-20T12:22:50;9.10;99.90
47921;DHT22;33686;48.770;9.186;2022-12-20T12:25:17;9.00;99.90
47921;DHT22;33686;48.770;9.186;2022-12-20T12:27:43;9.10;99.90
47921;DHT22;33686;48.770;9.186;2022-12-20T12:30:11;9.20;99.90
47921;DHT22;33686;48.770;9.186;2022-12-20T12:32:42;9.40;99.90
47921;DHT22;33686;48.770;9.186;2022-12-20T12:40:24;9.60;99.90
47921;DHT22;33686;48.770;9.186;2022-12-20T12:43:08;9.50;99.90
47921;DHT22;33686;48.770;9.186;2022-12-20T12:45:51;9.50;99.90
47921;DHT22;33686;48.770;9.186;2022-12-20T12:48:21;9.60;99.90
47921;DHT22;33686;48.770;9.186;2022-12-20T12:50:50;9.60;99.90
47921;DHT22;33686;48.770;9.186;2022-12-20T12:53:18;9.60;99.90
47921;DHT22;33686;48.770;9.186;2022-12-20T12:55:44;9.70;99.90
47921;DHT22;33686;48.770;9.186;2022-12-20T13:00:50;9.60;99.90
47921;DHT22;33686;48.770;9.186;2022-12-20T13:03:34;9.60;99.90
47921;DHT22;33686;48.770;9.186;2022-12-20T13:08:49;9.70;99.90
47921;DHT22;33686;48.770;9.186;2022-12-20T13:11:34;9.80;99.90
47921;DHT22;33686;48.770;9.186;2022-12-20T13:16:42;9.60;99.90
47921;DHT22;33686;48.770;9.186;2022-12-20T13:19:14;9.60;99.90
47921;DHT22;33686;48.770;9.186;2022-12-20T13:21:41;9.60;99.90
47921;DHT22;33686;48.770;9.186;2022-12-20T13:26:52;9.70;99.90
47921;DHT22;33686;48.770;9.186;2022-12-20T13:29:26;9.70;99.90
47921;DHT22;33686;48.770;9.186;2022-12-20T13:31:52;9.60;99.90
47921;DHT22;33686;48.770;9.186;2022-12-20T13:37:02;9.50;99.90
47921;DHT22;33686;48.770;9.186;2022-12-20T13:39:29;9.50;99.90
47921;DHT22;33686;48.770;9.186;2022-12-20T13:42:12;9.60;99.90
47921;DHT22;33686;48.770;9.186;2022-12-20T13:44:41;9.60;99.90
47921;DHT22;33686;48.770;9.186;2022-12-20T13:47:31;9.60;99.90
47921;DHT22;33686;48.770;9.186;2022-12-20T13:49:58;9.70;99.90
47921;DHT22;33686;48.770;9.186;2022-12-20T13:52:29;9.60;99.90
47921;DHT22;33686;48.770;9.186;2022-12-20T13:54:59;9.60;99.90
47921;DHT22;33686;48.770;9.186;2022-12-20T13:57:41;9.60;99.90
47921;DHT22;33686;48.770;9.186;2022-12-20T14:00:14;9.60;99.90
47921;DHT22;33686;48.770;9.186;2022-12-20T14:02:40;9.70;99.90
47921;DHT22;33686;48.770;9.186;2022-12-20T14:05:12;9.60;99.90
47921;DHT22;33686;48.770;9.186;2022-12-20T14:07:39;9.60;99.90
47921;DHT22;33686;48.770;9.186;2022-12-20T14:10:26;9.60;99.90
47921;DHT22;33686;48.770;9.186;2022-12-20T14:12:51;9.60;99.90
47921;DHT22;33686;48.770;9.186;2022-12-20T14:15:19;9.70;99.90
47921;DHT22;33686;48.770;9.186;2022-12-20T14:17:45;9.70;99.90
47921;DHT22;33686;48.770;9.186;2022-12-20T14:22:36;9.60;99.90
47921;DHT22;33686;48.770;9.186;2022-12-20T14:25:02;9.50;99.90
47921;DHT22;33686;48.770;9.186;2022-12-20T14:27:32;9.50;99.90
47921;DHT22;33686;48.770;9.186;2022-12-20T14:29:58;9.40;99.90
47921;DHT22;33686;48.770;9.186;2022-12-20T14:32:24;9.40;99.90
47921;DHT22;33686;48.770;9.186;2022-12-20T14:34:50;9.30;99.90
47921;DHT22;33686;48.770;9.186;2022-12-20T14:37:24;9.30;99.90
47921;DHT22;33686;48.770;9.186;2022-12-20T14:39:55;9.20;99.90
47921;DHT22;33686;48.770;9.186;2022-12-20T14:42:22;9.10;99.90
47921;DHT22;33686;48.770;9.186;2022-12-20T14:45:00;9.00;99.90
47921;DHT22;33686;48.770;9.186;2022-12-20T14:47:26;9.00;99.90
47921;DHT22;33686;48.770;9.186;2022-12-20T14:50:03;8.90;99.90
47921;DHT22;33686;48.770;9.186;2022-12-20T14:52:33;8.80;99.90
47921;DHT22;33686;48.770;9.186;2022-12-20T14:55:05;8.70;99.90
47921;DHT22;33686;48.770;9.186;2022-12-20T15:02:38;8.70;99.90
47921;DHT22;33686;48.770;9.186;2022-12-20T15:05:30;8.60;99.90
47921;DHT22;33686;48.770;9.186;2022-12-20T15:07:53;8.70;99.90
47921;DHT22;33686;48.770;9.186;2022-12-20T15:10:19;8.60;99.90
47921;DHT22;33686;48.770;9.186;2022-12-20T15:12:44;8.50;99.90
47921;DHT22;33686;48.770;9.186;2022-12-20T15:15:12;8.50;99.90
47921;DHT22;33686;48.770;9.186;2022-12-20T15:17:38;8.40;99.90
47921;DHT22;33686;48.770;9.186;2022-12-20T15:20:04;8.20;99.90
47921;DHT22;33686;48.770;9.186;2022-12-20T15:22:29;8.20;99.90
47921;DHT22;33686;48.770;9.186;2022-12-20T15:24:56;8.10;99.90
47921;DHT22;33686;48.770;9.186;2022-12-20T15:27:21;8.20;99.90
47921;DHT22;33686;48.770;9.186;2022-12-20T15:29:48;8.30;99.90
47921;DHT22;33686;48.770;9.186;2022-12-20T15:32:15;8.20;99.90
47921;DHT22;33686;48.770;9.186;2022-12-20T15:34:41;8.20;99.90
47921;DHT22;33686;48.770;9.186;2022-12-20T15:37:08;8.20;99.90
47921;DHT22;33686;48.770;9.186;2022-12-20T15:39:35;8.20;99.90
47921;DHT22;33686;48.770;9.186;2022-12-20T15:42:02;8.30;99.90
47921;DHT22;33686;48.770;9.186;2022-12-20T15:44:29;8.30;99.90
47921;DHT22;33686;48.770;9.186;2022-12-20T15:46:55;8.30;99.90
47921;DHT22;33686;48.770;9.186;2022-12-20T15:49:22;8.40;99.90
47921;DHT22;33686;48.770;9.186;2022-12-20T15:51:49;8.40;99.90
47921;DHT22;33686;48.770;9.186;2022-12-20T15:54:22;8.40;99.90
47921;DHT22;33686;48.770;9.186;2022-12-20T15:56:48;8.50;99.90
47921;DHT22;33686;48.770;9.186;2022-12-20T15:59:14;8.40;99.90
47921;DHT22;33686;48.770;9.186;2022-12-20T16:01:40;8.30;99.90
47921;DHT22;33686;48.770;9.186;2022-12-20T16:04:06;8.30;99.90
47921;DHT22;33686;48.770;9.186;2022-12-20T16:06:32;8.40;99.90
47921;DHT22;33686;48.770;9.186;2022-12-20T16:08:58;8.30;99.90
47921;DHT22;33686;48.770;9.186;2022-12-20T16:11:26;8.20;99.90
47921;DHT22;33686;48.770;9.186;2022-12-20T16:13:54;8.30;99.90
47921;DHT22;33686;48.770;9.186;2022-12-20T16:16:22;8.40;99.90
47921;DHT22;33686;48.770;9.186;2022-12-20T16:18:48;8.30;99.90
47921;DHT22;33686;48.770;9.186;2022-12-20T16:21:19;8.30;99.90
47921;DHT22;33686;48.770;9.186;2022-12-20T16:23:45;8.40;99.90
47921;DHT22;33686;48.770;9.186;2022-12-20T16:26:15;8.30;99.90
47921;DHT22;33686;48.770;9.186;2022-12-20T16:28:42;8.30;99.90
47921;DHT22;33686;48.770;9.186;2022-12-20T16:31:29;8.30;99.90
47921;DHT22;33686;48.770;9.186;2022-12-20T16:33:56;8.30;99.90
47921;DHT22;33686;48.770;9.186;2022-12-20T16:36:22;8.30;99.90
47921;DHT22;33686;48.770;9.186;2022-12-20T16:38:48;8.40;99.90
47921;DHT22;33686;48.770;9.186;2022-12-20T16:41:23;8.40;99.90
47921;DHT22;33686;48.770;9.186;2022-12-20T16:43:49;8.40;99.90
47921;DHT22;33686;48.770;9.186;2022-12-20T16:46:17;8.50;99.90
47921;DHT22;33686;48.770;9.186;2022-12-20T16:48:44;8.50;99.90
47921;DHT22;33686;48.770;9.186;2022-12-20T16:51:27;8.40;99.90
47921;DHT22;33686;48.770;9.186;2022-12-20T16:54:20;8.40;99.90
47921;DHT22;33686;48.770;9.186;2022-12-20T16:56:49;8.40;99.90
47921;DHT22;33686;48.770;9.186;2022-12-20T16:59:24;8.30;99.90
47921;DHT22;33686;48.770;9.186;2022-12-20T17:01:55;8.40;99.90
47921;DHT22;33686;48.770;9.186;2022-12-20T17:04:22;8.40;99.90
47921;DHT22;33686;48.770;9.186;2022-12-20T17:06:48;8.50;99.90
47921;DHT22;33686;48.770;9.186;2022-12-20T17:09:14;8.50;99.90
47921;DHT22;33686;48.770;9.186;2022-12-20T17:11:42;8.60;99.90
47921;DHT22;33686;48.770;9.186;2022-12-20T17:14:09;8.70;99.90
47921;DHT22;33686;48.770;9.186;2022-12-20T17:16:36;9.00;99.90
47921;DHT22;33686;48.770;9.186;2022-12-20T17:19:02;9.10;99.90
47921;DHT22;33686;48.770;9.186;2022-12-20T17:23:54;9.40;99.90
47921;DHT22;33686;48.770;9.186;2022-12-20T17:26:21;9.70;99.90
47921;DHT22;33686;48.770;9.186;2022-12-20T17:28:51;9.70;99.90
47921;DHT22;33686;48.770;9.186;2022-12-20T17:33:48;10.00;99.90
47921;DHT22;33686;48.770;9.186;2022-12-20T17:36:14;10.00;99.90
47921;DHT22;33686;48.770;9.186;2022-12-20T17:38:40;10.00;99.90
47921;DHT22;33686;48.770;9.186;2022-12-20T17:41:08;10.20;99.90
47921;DHT22;33686;48.770;9.186;2022-12-20T17:43:37;10.20;99.90
47921;DHT22;33686;48.770;9.186;2022-12-20T17:46:03;10.20;99.90
47921;DHT22;33686;48.770;9.186;2022-12-20T17:48:28;10.20;99.90
47921;DHT22;33686;48.770;9.186;2022-12-20T17:50:54;10.40;99.90
47921;DHT22;33686;48.770;9.186;2022-12-20T17:53:19;10.40;99.90
47921;DHT22;33686;48.770;9.186;2022-12-20T17:55:45;10.50;99.90
47921;DHT22;33686;48.770;9.186;2022-12-20T17:58:11;10.30;99.90
47921;DHT22;33686;48.770;9.186;2022-12-20T18:00:36;10.20;99.90
47921;DHT22;33686;48.770;9.186;2022-12-20T18:03:02;10.20;99.90
47921;DHT22;33686;48.770;9.186;2022-12-20T18:05:28;10.10;99.90
47921;DHT22;33686;48.770;9.186;2022-12-20T18:07:54;10.00;99.90
47921;DHT22;33686;48.770;9.186;2022-12-20T18:10:20;9.90;99.90
47921;DHT22;33686;48.770;9.186;2022-12-20T18:12:46;9.90;99.90
47921;DHT22;33686;48.770;9.186;2022-12-20T18:15:13;9.90;99.90
47921;DHT22;33686;48.770;9.186;2022-12-20T18:17:39;9.90;99.90
47921;DHT22;33686;48.770;9.186;2022-12-20T18:20:05;9.80;99.90
47921;DHT22;33686;48.770;9.186;2022-12-20T18:22:32;9.80;99.90
47921;DHT22;33686;48.770;9.186;2022-12-20T18:24:59;9.70;99.90
47921;DHT22;33686;48.770;9.186;2022-12-20T18:27:25;9.70;99.90
47921;DHT22;33686;48.770;9.186;2022-12-20T18:29:50;9.70;99.90
47921;DHT22;33686;48.770;9.186;2022-12-20T18:32:16;9.70;99.90
47921;DHT22;33686;48.770;9.186;2022-12-20T18:34:42;9.60;99.90
47921;DHT22;33686;48.770;9.186;2022-12-20T18:37:08;9.60;99.90
47921;DHT22;33686;48.770;9.186;2022-12-20T18:39:34;9.60;99.90
47921;DHT22;33686;48.770;9.186;2022-12-20T18:42:00;9.70;99.90
47921;DHT22;33686;48.770;9.186;2022-12-20T18:44:26;9.70;99.90
47921;DHT22;33686;48.770;9.186;2022-12-20T18:46:52;9.80;99.90
47921;DHT22;33686;48.770;9.186;2022-12-20T18:49:18;9.80;99.90
47921;DHT22;33686;48.770;9.186;2022-12-20T18:51:44;9.70;99.90
47921;DHT22;33686;48.770;9.186;2022-12-20T18:54:11;9.80;99.90
47921;DHT22;33686;48.770;9.186;2022-12-20T18:56:37;9.70;99.90
47921;DHT22;33686;48.770;9.186;2022-12-20T18:59:03;9.70;99.90
47921;DHT22;33686;48.770;9.186;2022-12-20T19:01:30;9.70;99.90
47921;DHT22;33686;48.770;9.186;2022-12-20T19:03:58;9.80;99.90
47921;DHT22;33686;48.770;9.186;2022-12-20T21:10:29;8.70;99.90
47921;DHT22;33686;48.770;9.186;2022-12-20T21:12:57;8.80;99.90
47921;DHT22;33686;48.770;9.186;2022-12-20T21:15:23;9.00;99.90
47921;DHT22;33686;48.770;9.186;2022-12-20T21:17:51;9.20;99.90
47921;DHT22;33686;48.770;9.186;2022-12-20T21:20:17;9.20;99.90
